Time;durP1;ratioP1;P1;durP2;ratioP2;P2;SDS_P1;SDS_P2;PMS_P1;PMS_P2;Temp;Humidity;BMP_temperature;BMP_pressure;BME280_temperature;BME280_humidity;BME280_pressure;Samples;Min_cycle;Max_cycle;Signal;HPM_P1;HPM_P2
2020/12/16 00:00:47;;;;;;;40.17;28.85;;;6.10;99.90;;;;;;4979843;28;20404;-81
2020/12/16 00:03:13;;;;;;;47.17;30.73;;;6.10;99.90;;;;;;4982743;28;20079;-80
2020/12/16 00:05:40;;;;;;;42.03;29.25;;;6.20;99.90;;;;;;4981370;28;20078;-81
2020/12/16 00:08:06;;;;;;;44.13;30.50;;;6.20;99.90;;;;;;4980745;28;20133;-78
2020/12/16 00:10:32;;;;;;;45.90;30.88;;;6.30;99.90;;;;;;4981741;28;20089;-80
2020/12/16 00:12:59;;;;;;;41.58;28.73;;;6.30;99.90;;;;;;4981130;28;20546;-82
2020/12/16 00:15:27;;;;;;;42.30;29.02;;;6.40;99.90;;;;;;4980763;28;20058;-80
2020/12/16 00:17:53;;;;;;;39.45;28.23;;;6.50;99.90;;;;;;4980850;28;20082;-82
2020/12/16 00:20:19;;;;;;;42.85;28.30;;;6.50;99.90;;;;;;4980568;28;20149;-81
2020/12/16 00:22:46;;;;;;;39.75;28.90;;;6.60;99.90;;;;;;4980532;28;20070;-81
2020/12/16 00:25:13;;;;;;;40.55;29.45;;;6.60;99.90;;;;;;4980025;28;20082;-82
2020/12/16 00:27:39;;;;;;;37.88;28.05;;;6.60;99.90;;;;;;4981327;28;20496;-81
2020/12/16 00:30:07;;;;;;;40.42;29.45;;;6.60;99.90;;;;;;4981169;28;20134;-81
2020/12/16 00:32:37;;;;;;;44.88;29.90;;;6.60;99.90;;;;;;4980482;28;20070;-82
2020/12/16 00:35:05;;;;;;;44.58;30.35;;;6.60;99.90;;;;;;4981112;28;20085;-80
2020/12/16 00:37:35;;;;;;;41.20;27.83;;;6.60;99.90;;;;;;4981147;28;20101;-80
2020/12/16 00:40:01;;;;;;;44.45;30.95;;;6.60;99.90;;;;;;4980352;28;20089;-80
2020/12/16 00:42:28;;;;;;;41.15;29.05;;;6.60;99.90;;;;;;4979816;28;20114;-80
2020/12/16 00:44:54;;;;;;;42.03;28.75;;;6.70;99.90;;;;;;4980409;28;20097;-82
2020/12/16 00:47:20;;;;;;;43.38;30.10;;;6.70;99.90;;;;;;4979895;28;20093;-81
2020/12/16 00:49:48;;;;;;;42.35;29.67;;;6.70;99.90;;;;;;4980458;28;20151;-80
2020/12/16 00:52:14;;;;;;;42.78;30.02;;;6.70;99.90;;;;;;4979713;28;20083;-79
2020/12/16 00:54:40;;;;;;;40.78;29.73;;;6.80;99.90;;;;;;4979359;28;20144;-79
2020/12/16 00:57:07;;;;;;;43.90;28.52;;;6.80;99.90;;;;;;4979174;28;20070;-80
2020/12/16 00:59:33;;;;;;;41.20;27.15;;;6.80;99.90;;;;;;4978242;28;20058;-80
2020/12/16 01:02:02;;;;;;;38.95;27.42;;;6.80;99.90;;;;;;4977801;28;20090;-80
2020/12/16 01:04:28;;;;;;;40.90;27.10;;;6.80;99.90;;;;;;4977700;28;20134;-80
2020/12/16 01:06:55;;;;;;;38.40;27.33;;;6.80;99.90;;;;;;4978474;28;20089;-80
2020/12/16 01:09:22;;;;;;;40.00;27.10;;;6.70;99.90;;;;;;4978569;28;20058;-80
2020/12/16 01:11:48;;;;;;;37.42;26.17;;;6.70;99.90;;;;;;4977548;28;20137;-79
2020/12/16 01:14:15;;;;;;;39.22;26.90;;;6.70;99.90;;;;;;4977766;28;20562;-79
2020/12/16 01:16:41;;;;;;;41.30;27.42;;;6.70;99.90;;;;;;4976832;28;20054;-79
2020/12/16 01:19:08;;;;;;;38.65;27.73;;;6.70;99.90;;;;;;4977201;28;20142;-78
2020/12/16 01:21:35;;;;;;;37.53;26.52;;;6.60;99.90;;;;;;4977047;28;20090;-79
2020/12/16 01:24:03;;;;;;;38.03;26.58;;;6.60;99.90;;;;;;4977681;28;20495;-80
2020/12/16 01:26:36;;;;;;;38.85;26.98;;;6.60;99.90;;;;;;4976495;28;20093;-78
2020/12/16 01:29:03;;;;;;;35.85;25.55;;;6.60;99.90;;;;;;4977049;28;20141;-79
2020/12/16 01:31:37;;;;;;;35.35;26.05;;;6.60;99.90;;;;;;4974850;28;20519;-79
2020/12/16 01:34:03;;;;;;;35.42;25.60;;;6.60;99.90;;;;;;4976746;28;20085;-79
2020/12/16 01:36:30;;;;;;;34.97;26.23;;;6.50;99.90;;;;;;4981453;28;20495;-79
2020/12/16 01:38:56;;;;;;;41.65;27.38;;;6.50;99.90;;;;;;4983261;28;20590;-81
2020/12/16 01:41:24;;;;;;;39.25;26.45;;;6.50;99.90;;;;;;4985454;28;20480;-82
2020/12/16 01:43:50;;;;;;;42.22;26.95;;;6.50;99.90;;;;;;4984922;28;20099;-80
2020/12/16 01:46:17;;;;;;;38.90;26.63;;;6.50;99.90;;;;;;4985024;28;20089;-80
2020/12/16 01:48:43;;;;;;;40.97;26.50;;;6.60;99.90;;;;;;4985118;28;20086;-80
2020/12/16 01:51:17;;;;;;;43.50;26.95;;;6.60;99.90;;;;;;4983954;28;20094;-81
2020/12/16 01:53:45;;;;;;;37.90;26.15;;;6.60;99.90;;;;;;4983465;28;20051;-81
2020/12/16 01:56:13;;;;;;;40.88;26.42;;;6.70;99.90;;;;;;4983118;28;20051;-82
2020/12/16 01:58:42;;;;;;;38.38;26.10;;;6.70;99.90;;;;;;4984461;28;20089;-81
2020/12/16 02:01:14;;;;;;;35.53;24.85;;;6.70;99.90;;;;;;4983759;28;20451;-81
2020/12/16 02:03:43;;;;;;;40.67;25.63;;;6.80;99.90;;;;;;4983555;28;20131;-79
2020/12/16 02:06:13;;;;;;;40.45;27.13;;;6.80;99.90;;;;;;4981968;28;20133;-80
2020/12/16 02:08:43;;;;;;;39.38;25.58;;;6.90;99.90;;;;;;4982641;28;20675;-80
2020/12/16 02:11:09;;;;;;;35.92;25.20;;;6.90;99.90;;;;;;4981460;28;20097;-80
2020/12/16 02:13:36;;;;;;;39.47;26.55;;;7.00;99.90;;;;;;4983576;28;20086;-80
2020/12/16 02:16:03;;;;;;;35.67;24.58;;;7.00;99.90;;;;;;4983047;28;20106;-81
2020/12/16 02:18:30;;;;;;;35.17;25.85;;;7.00;99.90;;;;;;4984095;28;20483;-80
2020/12/16 02:20:56;;;;;;;35.92;24.35;;;7.10;99.90;;;;;;4983208;28;20082;-80
2020/12/16 02:23:26;;;;;;;37.78;25.10;;;7.10;99.90;;;;;;4983019;28;20081;-80
2020/12/16 02:25:54;;;;;;;39.97;24.67;;;7.00;99.90;;;;;;4982665;28;20532;-82
2020/12/16 02:28:20;;;;;;;38.92;25.17;;;7.00;99.90;;;;;;4984044;28;20082;-80
2020/12/16 02:30:46;;;;;;;33.22;23.48;;;7.00;99.90;;;;;;4978165;28;20138;-79
2020/12/16 02:33:13;;;;;;;36.58;23.48;;;7.00;99.90;;;;;;4980097;28;20153;-79
2020/12/16 02:35:39;;;;;;;38.65;24.73;;;7.00;99.90;;;;;;4979605;28;20134;-78
2020/12/16 02:38:05;;;;;;;38.42;26.15;;;6.90;99.90;;;;;;4978819;28;20090;-79
2020/12/16 02:40:32;;;;;;;40.80;27.23;;;6.80;99.90;;;;;;4977685;28;20138;-78
2020/12/16 02:42:59;;;;;;;39.90;26.00;;;6.80;99.90;;;;;;4977988;28;20475;-79
2020/12/16 02:45:25;;;;;;;46.53;28.83;;;6.70;99.90;;;;;;4978254;28;20134;-81
2020/12/16 02:47:52;;;;;;;40.33;26.85;;;6.70;99.90;;;;;;4977892;28;20161;-79
2020/12/16 02:50:18;;;;;;;42.70;27.58;;;6.70;99.90;;;;;;4979791;28;20134;-80
2020/12/16 02:52:44;;;;;;;44.17;27.90;;;6.60;99.90;;;;;;4979841;28;20050;-80
2020/12/16 02:55:11;;;;;;;44.55;27.30;;;6.60;99.90;;;;;;4980193;28;20079;-80
2020/12/16 02:57:37;;;;;;;46.35;28.10;;;6.60;99.90;;;;;;4980736;28;20407;-80
2020/12/16 03:00:05;;;;;;;44.70;27.83;;;6.50;99.90;;;;;;4981397;28;20094;-80
2020/12/16 03:02:31;;;;;;;47.35;28.73;;;6.40;99.90;;;;;;4981879;28;20085;-80
2020/12/16 03:04:58;;;;;;;50.25;28.60;;;6.40;99.90;;;;;;4981495;28;20138;-80
2020/12/16 03:07:24;;;;;;;54.78;31.67;;;6.30;99.90;;;;;;4981651;28;20137;-81
2020/12/16 03:09:50;;;;;;;54.30;31.10;;;6.30;99.90;;;;;;4982534;28;20083;-80
2020/12/16 03:12:17;;;;;;;50.72;30.73;;;6.30;99.90;;;;;;4982163;28;20668;-82
2020/12/16 03:14:43;;;;;;;56.42;32.17;;;6.20;99.90;;;;;;4982088;28;20177;-80
2020/12/16 03:17:10;;;;;;;53.80;31.70;;;6.20;99.90;;;;;;4981860;28;20057;-79
2020/12/16 03:19:37;;;;;;;53.15;31.23;;;6.20;99.90;;;;;;4976110;28;20058;-79
2020/12/16 03:22:03;;;;;;;61.88;33.28;;;6.20;99.90;;;;;;4975854;28;20086;-79
2020/12/16 03:24:29;;;;;;;63.83;31.80;;;6.20;99.90;;;;;;4977171;28;20134;-80
2020/12/16 03:26:56;;;;;;;61.83;33.03;;;6.20;99.90;;;;;;4979820;28;20097;-80
2020/12/16 03:29:22;;;;;;;52.83;31.92;;;6.20;99.90;;;;;;4979784;28;20106;-78
2020/12/16 03:31:49;;;;;;;53.25;32.08;;;6.20;99.90;;;;;;4979747;28;20069;-79
2020/12/16 03:34:16;;;;;;;55.85;30.75;;;6.30;99.90;;;;;;4980104;28;20523;-82
2020/12/16 03:36:42;;;;;;;61.80;31.27;;;6.30;99.90;;;;;;4977635;28;20086;-79
2020/12/16 03:39:09;;;;;;;62.47;32.30;;;6.30;99.90;;;;;;4977799;28;20137;-79
2020/12/16 03:41:35;;;;;;;64.07;32.40;;;6.30;99.90;;;;;;4977096;28;20110;-79
2020/12/16 03:44:01;;;;;;;63.55;32.75;;;6.20;99.90;;;;;;4978814;28;20137;-79
2020/12/16 03:46:28;;;;;;;68.47;33.45;;;6.20;99.90;;;;;;4980904;28;20129;-80
2020/12/16 03:48:54;;;;;;;66.82;33.45;;;6.20;99.90;;;;;;4980463;28;20114;-81
2020/12/16 03:51:21;;;;;;;61.92;32.22;;;6.20;99.90;;;;;;4980336;28;20109;-80
2020/12/16 03:53:48;;;;;;;65.50;32.42;;;6.20;99.90;;;;;;4978510;28;20106;-79
2020/12/16 03:56:16;;;;;;;86.28;32.63;;;6.20;99.90;;;;;;4977640;28;20232;-79
2020/12/16 03:58:43;;;;;;;67.20;33.38;;;6.10;99.90;;;;;;4977689;28;20511;-79
2020/12/16 04:01:11;;;;;;;70.85;33.88;;;6.10;99.90;;;;;;4978973;28;20066;-80
2020/12/16 04:03:37;;;;;;;72.63;32.50;;;6.10;99.90;;;;;;4976597;28;20050;-79
2020/12/16 04:06:06;;;;;;;91.60;34.78;;;6.10;99.90;;;;;;4976329;28;20607;-78
2020/12/16 04:08:34;;;;;;;89.55;34.40;;;6.00;99.90;;;;;;4978058;28;20142;-80
2020/12/16 04:11:00;;;;;;;115.15;36.90;;;6.00;99.90;;;;;;4978766;28;20159;-80
2020/12/16 04:13:27;;;;;;;78.28;33.38;;;6.00;99.90;;;;;;4977979;28;20129;-80
2020/12/16 04:15:53;;;;;;;72.00;32.83;;;6.00;99.90;;;;;;4978846;28;20710;-79
2020/12/16 04:18:19;;;;;;;71.30;30.95;;;6.00;99.90;;;;;;4978361;28;20599;-81
2020/12/16 04:20:46;;;;;;;60.88;30.48;;;6.00;99.90;;;;;;4977967;28;20109;-80
2020/12/16 04:23:12;;;;;;;55.63;29.08;;;6.00;99.90;;;;;;4978058;28;20133;-80
2020/12/16 04:25:40;;;;;;;56.30;29.20;;;6.00;99.90;;;;;;4978390;28;20061;-80
2020/12/16 04:28:06;;;;;;;63.85;30.40;;;6.00;99.90;;;;;;4979176;28;20050;-80
2020/12/16 04:30:32;;;;;;;65.68;30.45;;;5.90;99.90;;;;;;4978486;28;20473;-80
2020/12/16 04:32:59;;;;;;;59.42;31.65;;;5.90;99.90;;;;;;4978841;28;20138;-80
2020/12/16 04:35:26;;;;;;;59.63;31.15;;;5.90;99.90;;;;;;4979333;28;20104;-80
2020/12/16 04:37:53;;;;;;;63.22;30.83;;;5.90;99.90;;;;;;4981508;28;20062;-80
2020/12/16 04:40:21;;;;;;;64.10;32.60;;;5.90;99.90;;;;;;4981353;28;20074;-80
2020/12/16 04:43:02;;;;;;;73.47;39.25;;;5.90;99.90;;;;;;4975807;28;20131;-82
2020/12/16 04:45:28;;;;;;;66.47;35.15;;;5.90;99.90;;;;;;4978839;28;20086;-80
2020/12/16 04:47:56;;;;;;;60.55;35.17;;;6.00;99.90;;;;;;4978346;28;20082;-80
2020/12/16 04:50:22;;;;;;;68.05;38.92;;;5.90;99.90;;;;;;4978365;28;20085;-80
2020/12/16 04:52:50;;;;;;;89.20;46.60;;;5.90;99.90;;;;;;4977509;28;20047;-81
2020/12/16 04:55:17;;;;;;;74.28;40.95;;;5.90;99.90;;;;;;4978451;28;20054;-80
2020/12/16 04:57:50;;;;;;;75.53;35.95;;;5.90;99.90;;;;;;4977230;28;20126;-81
2020/12/16 05:00:19;;;;;;;81.90;34.65;;;5.90;99.90;;;;;;4978417;28;20046;-80
2020/12/16 05:02:53;;;;;;;55.97;29.02;;;5.90;99.90;;;;;;4977066;28;20186;-80
2020/12/16 05:05:20;;;;;;;50.90;27.02;;;5.90;99.90;;;;;;4977864;28;20515;-81
2020/12/16 05:07:48;;;;;;;126.93;32.47;;;5.80;99.90;;;;;;4973083;28;20162;-79
2020/12/16 05:10:16;;;;;;;65.78;29.23;;;5.80;99.90;;;;;;4973359;28;20059;-78
2020/12/16 05:12:43;;;;;;;85.85;32.35;;;5.70;99.90;;;;;;4973667;28;20098;-80
2020/12/16 05:15:23;;;;;;;131.48;32.53;;;5.70;99.90;;;;;;4974285;28;20073;-80
2020/12/16 05:18:07;;;;;;;76.60;28.20;;;5.70;99.90;;;;;;4973769;28;20138;-78
2020/12/16 05:20:34;;;;;;;71.90;27.65;;;5.60;99.90;;;;;;4972649;28;20145;-78
2020/12/16 05:23:01;;;;;;;93.38;30.48;;;5.50;99.90;;;;;;4972820;28;20189;-79
2020/12/16 05:25:28;;;;;;;64.68;28.20;;;5.50;99.90;;;;;;4972606;28;20134;-78
2020/12/16 05:27:54;;;;;;;62.08;27.98;;;5.60;99.90;;;;;;4984274;28;20050;-79
2020/12/16 05:30:21;;;;;;;52.47;28.50;;;5.50;99.90;;;;;;4991298;28;20106;-79
2020/12/16 05:32:48;;;;;;;65.80;29.52;;;5.50;99.90;;;;;;4991679;28;20133;-79
2020/12/16 05:35:23;;;;;;;92.30;35.20;;;5.50;99.90;;;;;;4991968;28;20137;-79
2020/12/16 05:37:50;;;;;;;63.47;29.60;;;5.50;99.90;;;;;;4988288;28;20534;-80
2020/12/16 05:40:20;;;;;;;64.00;27.65;;;5.50;99.90;;;;;;4972627;28;20141;-79
2020/12/16 05:42:49;;;;;;;78.85;29.38;;;5.50;99.90;;;;;;4972886;28;20066;-79
2020/12/16 05:45:17;;;;;;;59.95;27.38;;;5.40;99.90;;;;;;4972612;28;20082;-79
2020/12/16 05:47:59;;;;;;;120.43;28.60;;;5.40;99.90;;;;;;4991398;28;20090;-77
2020/12/16 05:50:29;;;;;;;103.05;29.08;;;5.40;99.90;;;;;;4991829;28;20129;-78
2020/12/16 05:53:12;;;;;;;83.90;29.00;;;5.30;99.90;;;;;;4991625;28;20522;-78
2020/12/16 05:55:38;;;;;;;95.47;28.58;;;5.30;99.90;;;;;;4995897;28;20137;-79
2020/12/16 05:58:13;;;;;;;128.38;33.17;;;5.20;99.90;;;;;;4985075;28;20070;-82
2020/12/16 06:00:53;;;;;;;163.35;33.38;;;5.30;99.90;;;;;;4995002;28;20140;-82
2020/12/16 06:03:26;;;;;;;185.30;35.10;;;5.20;99.90;;;;;;4995214;28;20125;-79
2020/12/16 06:05:54;;;;;;;301.10;41.17;;;5.20;99.90;;;;;;4994330;28;20137;-80
2020/12/16 06:08:22;;;;;;;276.15;36.70;;;5.20;99.90;;;;;;4994363;28;20137;-80
2020/12/16 06:10:50;;;;;;;212.95;35.13;;;5.10;99.90;;;;;;4992703;28;20129;-79
2020/12/16 06:13:18;;;;;;;182.48;33.10;;;5.10;99.90;;;;;;4994382;28;20110;-80
2020/12/16 06:15:53;;;;;;;167.20;33.58;;;5.10;99.90;;;;;;4996841;28;20085;-79
2020/12/16 06:18:23;;;;;;;163.73;36.15;;;5.10;99.90;;;;;;4997488;28;20411;-79
2020/12/16 06:20:50;;;;;;;100.75;37.38;;;5.10;99.90;;;;;;4995539;28;20133;-79
2020/12/16 06:23:32;;;;;;;103.15;38.25;;;5.10;99.90;;;;;;4997150;28;20555;-78
2020/12/16 06:26:04;;;;;;;100.45;33.75;;;5.20;99.90;;;;;;4997538;28;20055;-80
2020/12/16 06:28:30;;;;;;;96.00;30.15;;;5.20;99.90;;;;;;4999702;28;20133;-79
2020/12/16 06:31:25;;;;;;;70.82;27.58;;;5.20;99.90;;;;;;4999548;28;20057;-80
2020/12/16 06:33:59;;;;;;;64.53;27.45;;;5.20;99.90;;;;;;4993928;28;20046;-79
2020/12/16 06:36:28;;;;;;;56.63;27.27;;;5.20;99.90;;;;;;4998948;28;20104;-79
2020/12/16 06:38:54;;;;;;;71.63;30.10;;;5.20;99.90;;;;;;4999333;28;20054;-78
2020/12/16 06:41:23;;;;;;;90.78;30.92;;;5.20;99.90;;;;;;4997030;28;20078;-78
2020/12/16 06:43:51;;;;;;;79.47;30.33;;;5.30;99.90;;;;;;4999225;28;20145;-80
2020/12/16 06:46:48;;;;;;;66.10;29.00;;;5.30;99.90;;;;;;5000026;28;20089;-80
2020/12/16 06:49:39;;;;;;;64.53;31.73;;;5.20;99.90;;;;;;4907778;29;20156;-78
2020/12/16 06:52:07;;;;;;;71.40;31.38;;;5.30;99.90;;;;;;4971903;28;20055;-78
2020/12/16 06:54:44;;;;;;;96.75;34.38;;;5.40;99.90;;;;;;4977878;28;20090;-79
2020/12/16 06:57:15;;;;;;;81.85;34.15;;;5.40;99.90;;;;;;4976883;28;20511;-79
2020/12/16 06:59:44;;;;;;;80.70;32.55;;;5.50;99.90;;;;;;4977231;28;20089;-79
2020/12/16 07:02:11;;;;;;;95.90;35.22;;;5.50;99.90;;;;;;4978515;28;20075;-79
2020/12/16 07:04:39;;;;;;;84.00;33.60;;;5.50;99.90;;;;;;4979415;28;20125;-79
2020/12/16 07:07:05;;;;;;;81.45;34.83;;;5.60;99.90;;;;;;4979696;28;20055;-79
2020/12/16 07:09:33;;;;;;;89.15;40.00;;;5.60;99.90;;;;;;4979511;28;20129;-80
2020/12/16 07:12:00;;;;;;;88.53;38.40;;;5.70;99.90;;;;;;4979186;28;20059;-80
2020/12/16 07:14:34;;;;;;;89.45;34.72;;;5.70;99.90;;;;;;4983263;28;20111;-80
2020/12/16 07:17:08;;;;;;;82.75;34.72;;;5.70;99.90;;;;;;4984324;28;20507;-79
2020/12/16 07:19:35;;;;;;;90.50;35.92;;;5.70;99.90;;;;;;4984273;28;20540;-79
2020/12/16 07:22:16;;;;;;;100.18;38.53;;;5.70;99.90;;;;;;4982346;28;20070;-77
2020/12/16 07:24:48;;;;;;;103.30;38.58;;;5.70;99.90;;;;;;4981368;28;20082;-79
2020/12/16 07:27:18;;;;;;;90.60;38.78;;;5.70;99.90;;;;;;4980818;28;20113;-83
2020/12/16 07:29:53;;;;;;;105.78;39.63;;;5.70;99.90;;;;;;4982521;28;20090;-79
2020/12/16 07:32:22;;;;;;;108.97;41.65;;;5.70;99.90;;;;;;4983832;28;20051;-79
2020/12/16 07:34:50;;;;;;;106.82;39.97;;;5.60;99.90;;;;;;4986748;28;20082;-79
2020/12/16 07:37:19;;;;;;;113.68;40.85;;;5.60;99.90;;;;;;4986633;28;20078;-79
2020/12/16 07:39:48;;;;;;;113.07;40.92;;;5.70;99.90;;;;;;4984830;28;20051;-79
2020/12/16 07:42:40;;;;;;;118.57;39.70;;;5.70;99.90;;;;;;4986321;28;20081;-79
2020/12/16 07:45:09;;;;;;;106.57;38.92;;;5.70;99.90;;;;;;4986808;28;20093;-79
2020/12/16 07:47:38;;;;;;;112.45;40.88;;;5.80;99.90;;;;;;4984650;28;20061;-79
2020/12/16 07:50:13;;;;;;;114.50;39.47;;;5.80;99.90;;;;;;4987116;28;20455;-78
2020/12/16 07:52:40;;;;;;;109.93;40.78;;;5.90;99.90;;;;;;4980436;28;20078;-79
2020/12/16 07:55:06;;;;;;;117.72;41.58;;;5.80;99.90;;;;;;4980084;28;20050;-79
2020/12/16 07:57:37;;;;;;;123.55;41.08;;;5.90;99.90;;;;;;4980192;28;20058;-79
2020/12/16 08:00:05;;;;;;;120.80;42.60;;;5.90;99.90;;;;;;4978100;28;20463;-77
2020/12/16 08:02:33;;;;;;;122.00;41.72;;;5.90;99.90;;;;;;4976154;28;20480;-78
2020/12/16 08:05:02;;;;;;;113.07;40.33;;;5.90;99.90;;;;;;4978190;28;20058;-78
2020/12/16 08:07:29;;;;;;;121.72;41.25;;;5.90;99.90;;;;;;4977936;28;20134;-78
2020/12/16 08:09:58;;;;;;;109.13;38.33;;;5.90;99.90;;;;;;4977209;28;20431;-78
2020/12/16 08:12:26;;;;;;;138.43;41.17;;;5.90;99.90;;;;;;4977764;28;20054;-79
2020/12/16 08:15:05;;;;;;;122.85;39.85;;;5.90;99.90;;;;;;4977974;28;20054;-77
2020/12/16 08:17:36;;;;;;;388.80;48.28;;;6.00;99.90;;;;;;4979116;28;20046;-77
2020/12/16 08:20:09;;;;;;;382.50;48.50;;;6.00;99.90;;;;;;4978447;28;20054;-77
2020/12/16 08:22:36;;;;;;;;;;;5.90;99.90;;;;;;4978784;28;20051;-81
2020/12/16 08:25:08;;;;;;;465.60;53.67;;;5.90;99.90;;;;;;4978122;28;20026;-78
2020/12/16 08:27:35;;;;;;;419.23;54.38;;;5.80;99.90;;;;;;4978374;28;20057;-79
2020/12/16 08:30:04;;;;;;;323.30;47.45;;;5.80;99.90;;;;;;4978238;28;20078;-78
2020/12/16 08:32:36;;;;;;;233.38;45.38;;;5.90;99.90;;;;;;4977510;28;20486;-79
2020/12/16 08:35:05;;;;;;;239.00;45.90;;;5.90;99.90;;;;;;4977987;28;20496;-79
2020/12/16 08:37:37;;;;;;;231.00;46.25;;;6.00;99.90;;;;;;4977894;28;20054;-79
2020/12/16 08:40:05;;;;;;;217.27;42.13;;;6.10;99.90;;;;;;4978025;28;20057;-78
2020/12/16 08:42:31;;;;;;;192.57;44.20;;;6.10;99.90;;;;;;4976497;28;20078;-78
2020/12/16 08:45:07;;;;;;;129.05;40.45;;;6.10;99.90;;;;;;4976538;28;20150;-78
2020/12/16 08:47:35;;;;;;;132.32;39.67;;;6.10;99.90;;;;;;4977505;28;20059;-77
2020/12/16 08:50:03;;;;;;;120.05;39.42;;;6.10;99.90;;;;;;4977703;28;20057;-78
2020/12/16 08:52:39;;;;;;;96.82;37.22;;;6.10;99.90;;;;;;4978267;28;20047;-78
2020/12/16 08:55:18;;;;;;;107.50;38.25;;;6.10;99.90;;;;;;4978946;28;20062;-80
2020/12/16 08:57:56;;;;;;;87.03;37.10;;;6.20;99.90;;;;;;4979357;28;20054;-79
2020/12/16 09:00:30;;;;;;;92.68;39.00;;;6.20;99.90;;;;;;4978793;28;20050;-79
2020/12/16 09:03:08;;;;;;;103.10;38.92;;;6.00;99.90;;;;;;4978223;28;20042;-79
2020/12/16 09:05:37;;;;;;;111.65;41.75;;;6.00;99.90;;;;;;4977344;28;20065;-79
2020/12/16 09:08:12;;;;;;;110.47;42.72;;;6.00;99.90;;;;;;4977149;28;20054;-80
2020/12/16 09:10:41;;;;;;;107.97;42.47;;;6.10;99.90;;;;;;4977971;28;20050;-80
2020/12/16 09:13:12;;;;;;;114.68;44.42;;;6.20;99.90;;;;;;4980614;28;20499;-80
2020/12/16 09:15:42;;;;;;;115.40;43.13;;;6.20;99.90;;;;;;4982047;28;20051;-80
2020/12/16 09:18:09;;;;;;;116.15;42.25;;;6.20;99.90;;;;;;4982711;28;20050;-80
2020/12/16 09:20:36;;;;;;;110.20;43.17;;;6.40;99.90;;;;;;4982030;28;20487;-80
2020/12/16 09:23:02;;;;;;;120.88;45.00;;;6.40;99.90;;;;;;4980206;28;20463;-80
2020/12/16 09:25:32;;;;;;;115.18;43.92;;;6.50;99.90;;;;;;4981093;28;20054;-80
2020/12/16 09:28:01;;;;;;;119.03;45.35;;;6.70;99.90;;;;;;4981330;28;20054;-80
2020/12/16 09:30:32;;;;;;;124.82;46.22;;;6.80;99.90;;;;;;4981666;28;20049;-80
2020/12/16 09:33:10;;;;;;;121.65;45.67;;;7.00;99.90;;;;;;4980768;28;20486;-81
2020/12/16 09:35:40;;;;;;;124.63;45.70;;;7.10;99.90;;;;;;4980372;28;20050;-79
2020/12/16 09:38:17;;;;;;;124.75;46.20;;;7.30;99.90;;;;;;4980085;28;20054;-80
2020/12/16 09:40:46;;;;;;;126.13;47.08;;;7.50;99.90;;;;;;4979084;28;20105;-79
2020/12/16 09:43:14;;;;;;;121.50;47.20;;;7.60;99.90;;;;;;4979271;28;20043;-78
2020/12/16 09:45:41;;;;;;;118.53;47.20;;;7.80;99.90;;;;;;4978188;28;20058;-79
2020/12/16 09:48:08;;;;;;;107.90;48.80;;;7.90;99.90;;;;;;4978627;28;20061;-79
2020/12/16 09:50:36;;;;;;;117.78;49.42;;;7.90;99.90;;;;;;4978468;28;20055;-79
2020/12/16 09:53:05;;;;;;;116.88;47.53;;;8.00;99.90;;;;;;4980638;28;20109;-79
2020/12/16 09:55:36;;;;;;;109.53;46.70;;;8.00;99.90;;;;;;4980661;28;20057;-78
2020/12/16 09:58:04;;;;;;;97.88;41.15;;;8.10;99.90;;;;;;4985345;28;20047;-80
2020/12/16 10:00:33;;;;;;;94.80;41.33;;;8.20;99.90;;;;;;4986617;28;20050;-80
2020/12/16 10:03:00;;;;;;;90.25;39.20;;;8.20;99.90;;;;;;4985621;28;20053;-78
2020/12/16 10:05:27;;;;;;;86.72;38.00;;;8.20;99.90;;;;;;4988597;28;20061;-80
2020/12/16 10:07:54;;;;;;;88.45;38.92;;;8.30;99.90;;;;;;4989782;28;20066;-81
2020/12/16 10:10:22;;;;;;;77.80;37.60;;;8.40;99.90;;;;;;4983768;28;20046;-80
2020/12/16 10:12:49;;;;;;;80.70;39.17;;;8.40;99.90;;;;;;4982031;28;20058;-79
2020/12/16 10:15:20;;;;;;;73.80;37.00;;;8.60;99.90;;;;;;4990645;28;20047;-81
2020/12/16 10:17:47;;;;;;;66.97;34.90;;;8.70;99.90;;;;;;4992546;28;20059;-81
2020/12/16 10:20:13;;;;;;;62.90;34.20;;;8.90;99.90;;;;;;4989764;28;20047;-80
2020/12/16 10:22:43;;;;;;;53.95;31.27;;;9.00;99.90;;;;;;4988774;28;20094;-80
2020/12/16 10:25:12;;;;;;;48.67;29.80;;;9.10;99.90;;;;;;4990471;28;20411;-80
2020/12/16 10:27:39;;;;;;;40.72;27.20;;;9.20;99.90;;;;;;4986955;28;20065;-79
2020/12/16 10:30:06;;;;;;;35.72;24.10;;;9.20;99.90;;;;;;4983370;28;20058;-81
2020/12/16 10:32:34;;;;;;;36.20;24.20;;;9.30;99.90;;;;;;4982803;28;20074;-82
2020/12/16 10:35:01;;;;;;;32.95;22.67;;;9.40;99.90;;;;;;4985123;28;20122;-80
2020/12/16 10:37:28;;;;;;;32.67;21.13;;;9.40;99.90;;;;;;4987832;28;20047;-80
2020/12/16 10:39:54;;;;;;;31.67;21.13;;;9.50;99.90;;;;;;4993148;28;20055;-82
2020/12/16 10:42:22;;;;;;;29.40;19.40;;;9.40;99.90;;;;;;4991451;28;20060;-79
2020/12/16 10:44:48;;;;;;;27.73;20.15;;;9.50;99.90;;;;;;4990128;28;20082;-80
2020/12/16 10:47:16;;;;;;;25.83;19.33;;;9.50;99.90;;;;;;4984924;28;20082;-80
2020/12/16 10:49:42;;;;;;;27.83;19.83;;;9.50;99.90;;;;;;4982063;28;20078;-79
2020/12/16 10:52:12;;;;;;;27.13;20.00;;;9.60;99.90;;;;;;4981094;28;20526;-79
2020/12/16 10:54:39;;;;;;;25.80;19.48;;;9.60;99.90;;;;;;4984182;28;20089;-80
2020/12/16 10:57:07;;;;;;;27.23;17.85;;;9.60;99.90;;;;;;4982429;28;20074;-80
2020/12/16 10:59:34;;;;;;;28.60;19.08;;;9.70;99.90;;;;;;4982820;28;20082;-79
2020/12/16 11:02:01;;;;;;;25.10;17.60;;;9.60;99.90;;;;;;4982174;28;20157;-81
2020/12/16 11:04:30;;;;;;;23.60;17.88;;;9.70;99.90;;;;;;4982279;28;20423;-83
2020/12/16 11:06:56;;;;;;;26.27;18.38;;;9.70;99.90;;;;;;4981281;28;20105;-80
2020/12/16 11:09:23;;;;;;;25.00;19.02;;;9.80;99.90;;;;;;4981625;28;20911;-80
2020/12/16 11:11:51;;;;;;;25.02;19.48;;;9.90;99.90;;;;;;4982891;28;20049;-81
2020/12/16 11:14:19;;;;;;;25.90;19.95;;;10.00;99.90;;;;;;4981644;28;20078;-78
2020/12/16 11:16:46;;;;;;;23.45;17.70;;;10.00;99.90;;;;;;4983229;28;20146;-82
2020/12/16 11:19:15;;;;;;;24.35;17.75;;;10.10;99.90;;;;;;4981990;28;20125;-80
2020/12/16 11:21:45;;;;;;;25.00;17.77;;;10.20;99.90;;;;;;4982165;28;20046;-81
2020/12/16 11:24:12;;;;;;;22.85;17.70;;;10.20;99.90;;;;;;4984196;28;20047;-79
2020/12/16 11:26:41;;;;;;;22.65;17.40;;;10.30;99.90;;;;;;4985193;28;20065;-81
2020/12/16 11:29:08;;;;;;;21.60;16.80;;;10.30;99.90;;;;;;4985386;28;20066;-79
2020/12/16 11:31:41;;;;;;;22.83;17.13;;;10.30;99.90;;;;;;4983223;28;20079;-80
2020/12/16 11:34:08;;;;;;;22.02;16.80;;;10.40;99.90;;;;;;4983626;28;20055;-80
2020/12/16 11:36:36;;;;;;;21.77;17.80;;;10.40;99.90;;;;;;4984051;28;20082;-82
2020/12/16 11:39:04;;;;;;;21.10;16.95;;;10.40;99.90;;;;;;4984406;28;20054;-80
2020/12/16 11:41:30;;;;;;;21.17;16.85;;;10.50;99.90;;;;;;4986335;28;20082;-81
2020/12/16 11:43:56;;;;;;;22.40;17.38;;;10.50;99.90;;;;;;4986310;28;20160;-82
2020/12/16 11:46:23;;;;;;;22.95;16.77;;;10.50;99.90;;;;;;4985903;28;20082;-83
2020/12/16 11:48:49;;;;;;;22.30;17.08;;;10.50;99.90;;;;;;4985342;28;20078;-79
2020/12/16 11:51:16;;;;;;;24.13;16.60;;;10.60;99.90;;;;;;4986085;28;20046;-80
2020/12/16 11:53:42;;;;;;;21.50;16.55;;;10.70;99.90;;;;;;4985648;28;20074;-81
2020/12/16 11:56:09;;;;;;;20.35;15.77;;;10.70;99.90;;;;;;4986239;28;20085;-80
2020/12/16 11:58:36;;;;;;;21.33;15.98;;;10.80;99.90;;;;;;4985956;28;20070;-81
2020/12/16 12:01:02;;;;;;;19.17;15.15;;;10.90;99.90;;;;;;4983238;28;20493;-80
2020/12/16 12:03:29;;;;;;;18.70;14.88;;;10.90;99.90;;;;;;4982283;28;20057;-80
2020/12/16 12:05:55;;;;;;;18.48;14.27;;;10.90;99.90;;;;;;4981191;28;20108;-81
2020/12/16 12:08:21;;;;;;;16.70;13.43;;;10.80;99.90;;;;;;4981587;28;20081;-80
2020/12/16 12:10:48;;;;;;;17.90;13.25;;;10.80;99.90;;;;;;4983905;28;20095;-79
2020/12/16 12:13:15;;;;;;;19.05;13.10;;;10.90;99.90;;;;;;4982634;28;20113;-79
2020/12/16 12:15:41;;;;;;;16.42;13.00;;;10.80;99.90;;;;;;4981665;28;20507;-79
2020/12/16 12:18:08;;;;;;;16.75;13.57;;;10.80;99.90;;;;;;4979937;28;20050;-79
2020/12/16 12:20:34;;;;;;;16.45;13.70;;;10.90;99.90;;;;;;4980222;28;20069;-78
2020/12/16 12:23:00;;;;;;;15.63;12.77;;;10.90;99.90;;;;;;4980598;28;20130;-80
2020/12/16 12:25:27;;;;;;;18.50;13.23;;;10.90;99.90;;;;;;4981967;28;20086;-81
2020/12/16 12:27:53;;;;;;;17.20;14.10;;;10.90;99.90;;;;;;4979048;28;20138;-81
2020/12/16 12:30:20;;;;;;;15.48;13.13;;;10.90;99.90;;;;;;4980592;28;20141;-79
2020/12/16 12:32:47;;;;;;;15.80;12.60;;;11.00;99.90;;;;;;4979772;28;20094;-79
2020/12/16 12:35:13;;;;;;;15.73;13.00;;;11.00;99.90;;;;;;4980578;28;20130;-78
2020/12/16 12:37:40;;;;;;;18.40;13.52;;;11.00;99.90;;;;;;4982973;28;20089;-80
2020/12/16 12:40:07;;;;;;;18.52;13.27;;;11.00;99.90;;;;;;4985453;28;20130;-79